Terminal Aerodrome Forecast
Issued by NWS Atlanta, GA

Home | Current Version | Previous Version | Text Only | Print | Product List | Glossary On
Versions: 1 2 3 4 5 6 7 8 9 10 11 12 13 14
601
FTUS42 KFFC 232331
TAFCSG
TAF
KCSG 232331Z 2400/2424 12012KT P6SM BKN040
     FM240800 14006KT P6SM BKN015 BKN040
     FM241600 09008KT P6SM BKN045
     FM242200 13010KT P6SM SCT050 BKN120=

USA.gov is the U.S. government's official web portal to all federal, state and local government web resources and services.